createdAt,value
2022-08-27T00:00:15.346Z,100.00
2022-08-27T00:02:43.030Z,100.00
2022-08-27T00:05:14.815Z,100.00
2022-08-27T00:07:42.729Z,100.00
2022-08-27T00:10:14.959Z,100.00
2022-08-27T00:12:41.944Z,100.00
2022-08-27T00:15:09.535Z,100.00
2022-08-27T00:17:38.720Z,100.00
2022-08-27T00:20:06.969Z,100.00
2022-08-27T00:22:33.882Z,100.00
2022-08-27T00:25:00.776Z,100.00
2022-08-27T00:27:27.435Z,100.00
2022-08-27T00:29:54.290Z,100.00
2022-08-27T00:32:21.121Z,100.00
2022-08-27T00:34:47.772Z,100.00
2022-08-27T00:37:14.989Z,100.00
2022-08-27T00:39:41.779Z,100.00
2022-08-27T00:42:08.622Z,100.00
2022-08-27T00:44:35.505Z,100.00
2022-08-27T00:47:11.099Z,100.00
2022-08-27T00:50:12.816Z,100.00
2022-08-27T00:52:56.426Z,100.00
2022-08-27T00:55:28.697Z,100.00
2022-08-27T00:58:04.907Z,100.00
2022-08-27T01:00:32.594Z,100.00
2022-08-27T01:02:59.398Z,100.00
2022-08-27T01:05:28.018Z,100.00
2022-08-27T01:07:59.381Z,100.00
2022-08-27T01:10:28.547Z,100.00
2022-08-27T01:12:56.567Z,100.00
2022-08-27T01:15:26.446Z,100.00
2022-08-27T01:17:54.485Z,100.00
2022-08-27T01:20:30.487Z,100.00
2022-08-27T01:23:25.222Z,100.00
2022-08-27T01:25:52.535Z,100.00
2022-08-27T01:28:23.568Z,100.00
2022-08-27T01:30:53.428Z,100.00
2022-08-27T01:33:21.445Z,100.00
2022-08-27T01:35:50.802Z,100.00
2022-08-27T01:38:30.903Z,100.00
2022-08-27T01:41:00.293Z,100.00
2022-08-27T01:43:29.233Z,100.00
2022-08-27T01:45:55.873Z,100.00
2022-08-27T01:48:22.784Z,100.00
2022-08-27T01:50:50.263Z,100.00
2022-08-27T01:53:25.839Z,100.00
2022-08-27T01:55:54.399Z,100.00
2022-08-27T01:58:25.151Z,100.00
2022-08-27T02:00:56.641Z,100.00
2022-08-27T02:03:24.642Z,100.00
2022-08-27T02:05:51.812Z,100.00
2022-08-27T02:08:19.442Z,100.00
2022-08-27T02:10:48.166Z,100.00
2022-08-27T02:13:15.059Z,100.00
2022-08-27T02:15:42.944Z,100.00
2022-08-27T02:18:10.937Z,100.00
2022-08-27T02:20:37.869Z,100.00
2022-08-27T02:23:04.957Z,100.00
2022-08-27T02:25:31.677Z,100.00
2022-08-27T02:28:00.339Z,100.00
2022-08-27T02:30:28.766Z,100.00
2022-08-27T02:32:55.464Z,100.00
2022-08-27T02:35:24.175Z,100.00
2022-08-27T02:37:52.004Z,100.00
2022-08-27T02:40:21.953Z,100.00
2022-08-27T02:42:49.234Z,100.00
2022-08-27T02:45:16.740Z,100.00
2022-08-27T02:47:44.022Z,100.00
2022-08-27T02:50:11.213Z,100.00
2022-08-27T02:52:38.096Z,100.00
2022-08-27T02:55:05.952Z,100.00
2022-08-27T02:57:36.353Z,100.00
2022-08-27T03:00:07.299Z,100.00
2022-08-27T03:02:34.067Z,100.00
2022-08-27T03:05:01.055Z,100.00
2022-08-27T03:07:27.707Z,100.00
2022-08-27T03:09:54.325Z,100.00
2022-08-27T03:12:22.881Z,100.00
2022-08-27T03:14:51.948Z,100.00
2022-08-27T03:17:37.306Z,100.00
2022-08-27T03:20:05.993Z,100.00
2022-08-27T03:22:32.830Z,100.00
2022-08-27T03:25:02.441Z,100.00
2022-08-27T03:27:29.374Z,100.00
2022-08-27T03:29:57.127Z,100.00
2022-08-27T03:32:26.262Z,100.00
2022-08-27T03:34:53.099Z,100.00
2022-08-27T03:37:19.700Z,100.00
2022-08-27T03:39:46.559Z,100.00
2022-08-27T03:42:13.315Z,100.00
2022-08-27T03:44:40.167Z,100.00
2022-08-27T03:47:07.094Z,100.00
2022-08-27T03:49:33.860Z,100.00
2022-08-27T03:52:00.694Z,100.00
2022-08-27T03:54:27.442Z,100.00
2022-08-27T03:56:54.145Z,100.00
2022-08-27T03:59:20.980Z,100.00
2022-08-27T04:01:47.698Z,100.00
2022-08-27T04:04:14.705Z,100.00
2022-08-27T04:06:41.699Z,100.00
2022-08-27T04:09:08.378Z,100.00
2022-08-27T04:11:35.569Z,100.00
2022-08-27T04:14:14.524Z,100.00
2022-08-27T04:16:52.462Z,100.00
2022-08-27T04:19:20.028Z,100.00
2022-08-27T04:21:48.817Z,100.00
2022-08-27T04:24:15.806Z,100.00
2022-08-27T04:26:45.658Z,100.00
2022-08-27T04:29:12.518Z,100.00
2022-08-27T04:31:39.314Z,100.00
2022-08-27T04:34:07.723Z,100.00
2022-08-27T04:36:34.346Z,100.00
2022-08-27T04:39:01.317Z,100.00
2022-08-27T04:41:29.029Z,100.00
2022-08-27T04:43:58.719Z,100.00
2022-08-27T04:46:29.085Z,100.00
2022-08-27T04:48:57.855Z,100.00
2022-08-27T04:51:25.076Z,100.00
2022-08-27T04:53:52.422Z,100.00
2022-08-27T04:56:22.716Z,100.00
2022-08-27T04:58:51.374Z,100.00
2022-08-27T05:01:20.604Z,100.00
2022-08-27T05:03:47.360Z,100.00
2022-08-27T05:06:14.443Z,100.00
2022-08-27T05:08:41.594Z,100.00
2022-08-27T05:11:13.602Z,100.00
2022-08-27T05:13:40.842Z,100.00
2022-08-27T05:16:11.351Z,100.00
2022-08-27T05:18:42.268Z,100.00
2022-08-27T05:21:28.662Z,100.00
2022-08-27T05:23:57.233Z,100.00
2022-08-27T05:26:24.022Z,100.00
2022-08-27T05:28:51.137Z,100.00
2022-08-27T05:31:19.625Z,100.00
2022-08-27T05:33:47.418Z,100.00
2022-08-27T05:36:22.823Z,100.00
2022-08-27T05:38:50.407Z,100.00
2022-08-27T05:41:25.029Z,100.00
2022-08-27T05:43:59.253Z,99.90
2022-08-27T05:46:29.145Z,100.00
2022-08-27T05:48:58.270Z,100.00
2022-08-27T05:51:28.405Z,100.00
2022-08-27T05:53:56.866Z,100.00
2022-08-27T05:56:25.832Z,100.00
2022-08-27T05:59:11.360Z,100.00
2022-08-27T06:01:42.781Z,100.00
2022-08-27T06:04:10.550Z,100.00
2022-08-27T06:06:39.402Z,100.00
2022-08-27T06:09:07.125Z,99.38
2022-08-27T06:11:33.872Z,98.84
2022-08-27T06:14:00.880Z,99.57
2022-08-27T06:16:27.981Z,99.17
2022-08-27T06:18:56.829Z,98.85
2022-08-27T06:21:24.768Z,98.39
2022-08-27T06:23:52.828Z,98.91
2022-08-27T06:26:21.626Z,98.49
2022-08-27T06:28:49.658Z,97.87
2022-08-27T06:31:27.595Z,98.40
2022-08-27T06:34:02.915Z,99.14
2022-08-27T06:36:37.548Z,99.21
2022-08-27T06:39:04.348Z,99.11
2022-08-27T06:41:31.993Z,98.55
2022-08-27T06:43:58.589Z,97.84
2022-08-27T06:46:27.690Z,96.89
2022-08-27T06:48:56.505Z,96.70
2022-08-27T06:51:26.345Z,97.09
2022-08-27T06:53:55.689Z,96.30
2022-08-27T06:56:22.866Z,95.96
2022-08-27T06:58:56.072Z,95.29
2022-08-27T07:01:28.186Z,95.75
2022-08-27T07:04:00.236Z,95.19
2022-08-27T07:06:29.325Z,95.29
2022-08-27T07:08:57.154Z,95.63
2022-08-27T07:11:25.049Z,95.32
2022-08-27T07:13:52.572Z,93.85
2022-08-27T07:16:22.792Z,93.59
2022-08-27T07:18:53.208Z,92.59
2022-08-27T07:21:21.245Z,92.65
2022-08-27T07:23:50.166Z,92.57
2022-08-27T07:26:17.892Z,93.75
2022-08-27T07:28:46.563Z,94.24
2022-08-27T07:31:17.111Z,95.35
2022-08-27T07:33:50.749Z,95.74
2022-08-27T07:36:21.625Z,95.36
2022-08-27T07:39:00.727Z,95.89
2022-08-27T07:41:31.148Z,95.59
2022-08-27T07:44:20.028Z,96.29
2022-08-27T07:46:48.724Z,95.55
2022-08-27T07:49:20.250Z,95.69
2022-08-27T07:51:47.207Z,94.72
2022-08-27T07:54:14.816Z,94.29
2022-08-27T07:56:41.813Z,93.99
2022-08-27T07:59:09.009Z,93.82
2022-08-27T08:01:36.088Z,93.74
2022-08-27T08:04:03.098Z,92.77
2022-08-27T08:06:30.009Z,93.24
2022-08-27T08:08:56.720Z,90.61
2022-08-27T08:11:23.532Z,90.70
2022-08-27T08:13:50.381Z,91.07
2022-08-27T08:16:17.070Z,91.98
2022-08-27T08:18:43.979Z,89.19
2022-08-27T08:21:13.077Z,88.74
2022-08-27T08:23:40.576Z,88.49
2022-08-27T08:26:09.115Z,86.93
2022-08-27T08:28:36.626Z,86.67
2022-08-27T08:31:03.565Z,85.17
2022-08-27T08:33:31.588Z,84.51
2022-08-27T08:36:10.766Z,83.92
2022-08-27T08:38:38.194Z,84.49
2022-08-27T08:41:07.208Z,84.04
2022-08-27T08:43:39.342Z,84.91
2022-08-27T08:46:09.958Z,83.54
2022-08-27T08:48:41.377Z,83.75
2022-08-27T08:51:25.576Z,82.46
2022-08-27T08:53:58.453Z,80.66
2022-08-27T08:56:35.246Z,79.58
2022-08-27T08:59:19.074Z,79.52
2022-08-27T09:01:46.001Z,79.86
2022-08-27T09:04:13.243Z,79.68
2022-08-27T09:07:28.385Z,79.09
2022-08-27T09:10:21.395Z,79.08
2022-08-27T09:12:48.496Z,79.04
2022-08-27T09:15:25.239Z,77.23
2022-08-27T09:17:51.934Z,75.21
2022-08-27T09:20:25.675Z,75.97
2022-08-27T09:23:22.922Z,77.14
2022-08-27T09:25:49.648Z,77.73
2022-08-27T09:28:42.519Z,77.64
2022-08-27T09:31:20.586Z,76.51
2022-08-27T09:33:56.432Z,78.42
2022-08-27T09:36:24.116Z,75.48
2022-08-27T09:39:04.234Z,75.18
2022-08-27T09:41:36.570Z,76.52
2022-08-27T09:44:14.813Z,76.44
2022-08-27T09:46:52.245Z,76.80
2022-08-27T09:49:19.996Z,77.67
2022-08-27T09:51:48.501Z,77.28
2022-08-27T09:54:46.802Z,79.01
2022-08-27T09:57:28.797Z,76.73
2022-08-27T09:59:57.759Z,76.84
2022-08-27T10:02:26.933Z,76.71
2022-08-27T10:04:58.734Z,77.41
2022-08-27T10:07:38.593Z,80.17
2022-08-27T10:10:17.980Z,79.93
2022-08-27T10:13:10.147Z,77.51
2022-08-27T10:16:20.545Z,77.93
2022-08-27T10:18:56.494Z,77.71
2022-08-27T10:21:28.488Z,78.67
2022-08-27T10:24:33.400Z,77.20
2022-08-27T10:27:49.829Z,74.90
2022-08-27T10:30:25.005Z,77.29
2022-08-27T10:33:23.648Z,77.21
2022-08-27T10:36:16.789Z,75.08
2022-08-27T10:39:06.162Z,74.65
2022-08-27T10:41:39.739Z,75.26
2022-08-27T10:44:43.253Z,73.81
2022-08-27T10:47:31.562Z,71.92
2022-08-27T10:50:27.090Z,73.02
2022-08-27T10:53:10.691Z,75.20
2022-08-27T10:55:51.401Z,71.39
2022-08-27T10:58:48.415Z,71.79
2022-08-27T11:01:59.919Z,71.35
2022-08-27T11:04:32.730Z,72.01
2022-08-27T11:07:05.428Z,71.71
2022-08-27T11:10:25.360Z,72.79
2022-08-27T11:12:57.916Z,72.92
2022-08-27T11:15:30.115Z,74.15
2022-08-27T11:18:01.713Z,73.92
2022-08-27T11:20:53.696Z,75.62
2022-08-27T11:23:27.259Z,74.51
2022-08-27T11:26:01.927Z,74.44
2022-08-27T11:28:41.728Z,72.89
2022-08-27T11:31:50.462Z,71.87
2022-08-27T11:34:33.939Z,72.76
2022-08-27T11:37:26.352Z,74.51
2022-08-27T11:40:04.896Z,76.39
2022-08-27T11:43:04.069Z,73.92
2022-08-27T11:45:40.030Z,72.89
2022-08-27T11:48:43.415Z,74.92
2022-08-27T11:51:28.681Z,74.39
2022-08-27T11:54:01.865Z,72.74
2022-08-27T11:56:42.025Z,72.75
2022-08-27T11:59:43.621Z,72.44
2022-08-27T12:02:20.679Z,71.11
2022-08-27T12:04:49.562Z,72.92
2022-08-27T12:07:30.792Z,71.84
2022-08-27T12:10:27.508Z,71.77
2022-08-27T12:13:02.829Z,69.61
2022-08-27T12:16:16.364Z,70.54
2022-08-27T12:18:57.651Z,69.06
2022-08-27T12:21:41.814Z,69.51
2022-08-27T12:24:49.320Z,69.94
2022-08-27T12:27:34.388Z,72.00
2022-08-27T12:30:37.842Z,71.99
2022-08-27T12:33:13.782Z,70.42
2022-08-27T12:35:53.075Z,69.62
2022-08-27T12:38:50.388Z,68.81
2022-08-27T12:41:50.770Z,69.03
2022-08-27T12:44:27.578Z,70.61
2022-08-27T12:47:04.327Z,71.03
2022-08-27T12:49:39.444Z,73.09
2022-08-27T12:52:44.389Z,70.82
2022-08-27T12:55:40.393Z,70.84
2022-08-27T12:58:38.076Z,71.08
2022-08-27T13:01:33.957Z,70.29
2022-08-27T13:04:01.546Z,71.51
2022-08-27T13:06:34.826Z,71.01
2022-08-27T13:09:04.736Z,70.84
2022-08-27T13:11:34.670Z,70.12
2022-08-27T13:14:13.491Z,69.55
2022-08-27T13:16:50.360Z,69.74
2022-08-27T13:19:31.418Z,69.13
2022-08-27T13:21:59.628Z,70.97
2022-08-27T13:24:44.485Z,69.78
2022-08-27T13:27:11.462Z,70.16
2022-08-27T13:29:40.115Z,71.39
2022-08-27T13:32:07.497Z,70.71
2022-08-27T13:34:38.680Z,70.30
2022-08-27T13:37:21.013Z,70.98
2022-08-27T13:39:51.846Z,69.30
2022-08-27T13:42:20.279Z,70.11
2022-08-27T13:44:48.243Z,68.31
2022-08-27T13:47:22.114Z,67.96
2022-08-27T13:49:48.861Z,69.36
2022-08-27T13:52:27.474Z,69.66
2022-08-27T13:55:05.861Z,67.88
2022-08-27T13:57:50.626Z,65.87
2022-08-27T14:00:23.829Z,66.14
2022-08-27T14:02:55.815Z,66.42
2022-08-27T14:05:34.065Z,67.26
2022-08-27T14:08:12.726Z,65.65
2022-08-27T14:10:44.326Z,64.91
2022-08-27T14:13:23.606Z,64.90
2022-08-27T14:15:59.019Z,64.70
2022-08-27T14:18:55.102Z,64.16
2022-08-27T14:21:17.503Z,64.43
2022-08-27T14:23:44.426Z,65.37
2022-08-27T14:26:14.834Z,63.90
2022-08-27T14:28:42.621Z,63.23
2022-08-27T14:31:09.308Z,64.14
2022-08-27T14:33:36.026Z,62.10
2022-08-27T14:36:03.336Z,65.09
2022-08-27T14:38:31.985Z,65.30
2022-08-27T14:40:59.990Z,63.74
2022-08-27T14:43:27.229Z,64.79
2022-08-27T14:45:55.436Z,64.04
2022-08-27T14:48:28.846Z,64.69
2022-08-27T14:50:56.785Z,64.97
2022-08-27T14:53:23.752Z,64.14
2022-08-27T14:55:52.112Z,63.51
2022-08-27T14:58:19.357Z,63.82
2022-08-27T15:00:46.736Z,63.53
2022-08-27T15:03:14.043Z,65.83
2022-08-27T15:05:40.746Z,65.59
2022-08-27T15:08:13.340Z,66.45
2022-08-27T15:10:40.448Z,65.22
2022-08-27T15:13:07.338Z,65.61
2022-08-27T15:15:34.201Z,66.81
2022-08-27T15:18:00.863Z,66.75
2022-08-27T15:20:27.755Z,64.90
2022-08-27T15:22:54.339Z,65.11
2022-08-27T15:25:21.657Z,65.40
2022-08-27T15:27:49.315Z,67.15
2022-08-27T15:30:18.799Z,67.14
2022-08-27T15:32:47.932Z,68.73
2022-08-27T15:35:18.388Z,68.87
2022-08-27T15:37:45.798Z,68.71
2022-08-27T15:40:15.307Z,68.95
2022-08-27T15:42:42.481Z,68.50
2022-08-27T15:45:11.395Z,68.59
2022-08-27T15:47:38.054Z,68.18
2022-08-27T15:50:06.277Z,67.83
2022-08-27T15:52:40.475Z,68.22
2022-08-27T15:55:14.900Z,67.99
2022-08-27T15:57:41.545Z,69.41
2022-08-27T16:00:09.234Z,68.98
2022-08-27T16:02:36.242Z,70.21
2022-08-27T16:05:02.963Z,69.30
2022-08-27T16:07:30.335Z,68.67
2022-08-27T16:09:57.042Z,69.10
2022-08-27T16:12:27.073Z,68.66
2022-08-27T16:14:55.299Z,69.46
2022-08-27T16:17:22.869Z,69.56
2022-08-27T16:19:49.613Z,68.12
2022-08-27T16:22:16.353Z,68.13
2022-08-27T16:24:45.009Z,69.70
2022-08-27T16:27:11.950Z,70.50
2022-08-27T16:29:38.593Z,72.04
2022-08-27T16:32:07.618Z,71.82
2022-08-27T16:34:35.130Z,72.62
2022-08-27T16:37:01.785Z,72.15
2022-08-27T16:39:33.699Z,72.49
2022-08-27T16:42:02.400Z,71.97
2022-08-27T16:44:29.677Z,71.84
2022-08-27T16:46:56.298Z,71.59
2022-08-27T16:49:41.769Z,72.30
2022-08-27T16:52:09.142Z,71.99
2022-08-27T16:54:35.949Z,72.30
2022-08-27T16:57:02.828Z,72.73
2022-08-27T16:59:29.514Z,72.78
2022-08-27T17:01:57.001Z,73.28
2022-08-27T17:04:30.452Z,73.58
2022-08-27T17:07:02.209Z,73.90
2022-08-27T17:09:30.351Z,74.74
2022-08-27T17:11:58.369Z,74.80
2022-08-27T17:14:25.108Z,76.08
2022-08-27T17:16:54.115Z,76.35
2022-08-27T17:19:26.183Z,76.12
2022-08-27T17:21:54.940Z,76.42
2022-08-27T17:24:22.051Z,76.59
2022-08-27T17:26:48.863Z,77.08
2022-08-27T17:29:15.516Z,77.05
2022-08-27T17:31:43.489Z,77.12
2022-08-27T17:34:20.537Z,77.41
2022-08-27T17:36:47.365Z,76.73
2022-08-27T17:39:14.713Z,76.59
2022-08-27T17:41:44.294Z,76.60
2022-08-27T17:44:32.642Z,76.86
2022-08-27T17:47:02.982Z,77.16
2022-08-27T17:49:32.419Z,76.94
2022-08-27T17:52:02.427Z,76.93
2022-08-27T17:54:56.323Z,76.73
2022-08-27T17:57:26.552Z,77.26
2022-08-27T17:59:54.311Z,77.95
2022-08-27T18:02:29.130Z,78.06
2022-08-27T18:04:56.198Z,78.97
2022-08-27T18:07:24.367Z,79.36
2022-08-27T18:09:51.395Z,79.50
2022-08-27T18:12:22.720Z,79.65
2022-08-27T18:14:54.555Z,80.07
2022-08-27T18:17:21.202Z,80.17
2022-08-27T18:19:50.717Z,80.31
2022-08-27T18:22:18.320Z,81.23
2022-08-27T18:24:44.984Z,81.14
2022-08-27T18:27:11.648Z,81.32
2022-08-27T18:29:38.492Z,81.82
2022-08-27T18:32:05.372Z,82.22
2022-08-27T18:34:32.549Z,82.81
2022-08-27T18:36:59.393Z,83.52
2022-08-27T18:39:26.193Z,83.15
2022-08-27T18:41:53.281Z,83.27
2022-08-27T18:44:20.012Z,83.58
2022-08-27T18:46:46.907Z,84.13
2022-08-27T18:49:13.805Z,84.34
2022-08-27T18:51:43.038Z,83.90
2022-08-27T18:54:09.768Z,84.26
2022-08-27T18:56:36.416Z,84.39
2022-08-27T18:59:04.300Z,84.41
2022-08-27T19:01:31.876Z,84.48
2022-08-27T19:03:58.844Z,84.63
2022-08-27T19:06:25.656Z,84.74
2022-08-27T19:08:52.330Z,84.36
2022-08-27T19:11:19.116Z,83.85
2022-08-27T19:13:46.249Z,83.48
2022-08-27T19:16:39.167Z,83.93
2022-08-27T19:19:06.134Z,82.80
2022-08-27T19:21:33.479Z,80.67
2022-08-27T19:24:00.084Z,79.94
2022-08-27T19:26:27.220Z,80.48
2022-08-27T19:28:53.920Z,82.95
2022-08-27T19:31:20.636Z,86.15
2022-08-27T19:33:47.379Z,89.29
2022-08-27T19:36:18.590Z,90.70
2022-08-27T19:38:45.994Z,93.28
2022-08-27T19:41:13.040Z,94.70
2022-08-27T19:43:43.824Z,95.67
2022-08-27T19:46:13.697Z,97.26
2022-08-27T19:48:40.395Z,96.98
2022-08-27T19:51:07.054Z,95.60
2022-08-27T19:53:34.245Z,95.14
2022-08-27T19:56:01.284Z,95.66
2022-08-27T19:58:28.122Z,96.14
2022-08-27T20:00:55.029Z,96.10
2022-08-27T20:03:21.981Z,97.36
2022-08-27T20:05:51.609Z,97.92
2022-08-27T20:08:19.254Z,97.61
2022-08-27T20:10:46.226Z,97.59
2022-08-27T20:13:13.199Z,97.96
2022-08-27T20:15:40.617Z,97.46
2022-08-27T20:18:07.517Z,97.89
2022-08-27T20:20:35.673Z,97.35
2022-08-27T20:23:05.074Z,97.70
2022-08-27T20:25:33.468Z,96.97
2022-08-27T20:28:12.227Z,97.04
2022-08-27T20:30:48.684Z,97.36
2022-08-27T20:33:16.701Z,97.17
2022-08-27T20:35:44.733Z,96.69
2022-08-27T20:38:11.625Z,96.59
2022-08-27T20:40:38.419Z,96.53
2022-08-27T20:43:05.139Z,96.62
2022-08-27T20:45:32.313Z,95.80
2022-08-27T20:47:59.059Z,96.38
2022-08-27T20:50:25.781Z,96.74
2022-08-27T20:52:52.772Z,97.52
2022-08-27T20:55:19.816Z,97.85
2022-08-27T20:58:11.761Z,98.25
2022-08-27T21:00:41.970Z,98.20
2022-08-27T21:03:10.549Z,98.01
2022-08-27T21:05:37.810Z,98.37
2022-08-27T21:08:06.262Z,98.55
2022-08-27T21:10:33.713Z,98.49
2022-08-27T21:13:04.549Z,98.15
2022-08-27T21:15:32.072Z,97.77
2022-08-27T21:17:58.754Z,98.01
2022-08-27T21:20:25.570Z,98.15
2022-08-27T21:22:52.226Z,98.77
2022-08-27T21:25:19.029Z,98.44
2022-08-27T21:27:45.602Z,98.76
2022-08-27T21:30:13.024Z,98.49
2022-08-27T21:32:39.766Z,99.05
2022-08-27T21:35:06.985Z,99.34
2022-08-27T21:37:34.441Z,99.21
2022-08-27T21:40:01.293Z,99.14
2022-08-27T21:42:27.960Z,99.85
2022-08-27T21:44:54.614Z,99.46
2022-08-27T21:47:21.252Z,99.08
2022-08-27T21:49:47.864Z,99.27
2022-08-27T21:52:14.761Z,99.09
2022-08-27T21:54:42.240Z,99.21
2022-08-27T21:57:14.015Z,99.12
2022-08-27T21:59:44.497Z,99.19
2022-08-27T22:02:35.734Z,99.25
2022-08-27T22:04:58.323Z,99.63
2022-08-27T22:07:25.405Z,99.14
2022-08-27T22:09:51.999Z,98.84
2022-08-27T22:12:18.817Z,99.03
2022-08-27T22:14:45.483Z,98.50
2022-08-27T22:17:15.698Z,98.91
2022-08-27T22:19:42.760Z,98.73
2022-08-27T22:22:09.549Z,98.42
2022-08-27T22:24:36.365Z,98.26
2022-08-27T22:27:03.019Z,98.30
2022-08-27T22:29:30.712Z,98.81
2022-08-27T22:31:57.681Z,99.31
2022-08-27T22:34:24.366Z,98.81
2022-08-27T22:36:51.192Z,98.75
2022-08-27T22:39:17.840Z,98.89
2022-08-27T22:41:47.598Z,98.63
2022-08-27T22:44:15.674Z,98.12
2022-08-27T22:46:42.346Z,97.88
2022-08-27T22:49:09.221Z,97.77
2022-08-27T22:51:35.803Z,97.61
2022-08-27T22:54:02.410Z,97.87
2022-08-27T22:56:29.453Z,98.07
2022-08-27T22:58:56.202Z,98.08
2022-08-27T23:01:22.885Z,98.68
2022-08-27T23:03:49.692Z,98.67
2022-08-27T23:06:16.304Z,98.53
2022-08-27T23:08:43.065Z,98.52
2022-08-27T23:11:09.716Z,98.54
2022-08-27T23:13:36.498Z,98.47
2022-08-27T23:16:03.591Z,99.10
2022-08-27T23:18:30.539Z,98.59
2022-08-27T23:20:57.178Z,98.44
2022-08-27T23:23:26.733Z,99.62
2022-08-27T23:26:16.581Z,100.00
2022-08-27T23:28:44.232Z,100.00
2022-08-27T23:31:11.774Z,100.00
2022-08-27T23:33:39.085Z,100.00
2022-08-27T23:36:06.699Z,100.00
2022-08-27T23:38:33.855Z,100.00
2022-08-27T23:41:00.753Z,100.00
2022-08-27T23:43:28.181Z,100.00
2022-08-27T23:45:54.782Z,100.00
2022-08-27T23:48:21.620Z,99.87
2022-08-27T23:50:48.288Z,100.00
2022-08-27T23:53:14.966Z,100.00
2022-08-27T23:55:41.837Z,100.00
2022-08-27T23:58:08.959Z,100.00
